createdAt,value
2018-09-03T00:00:23.715Z,98361.31
2018-09-03T00:05:16.906Z,98359.84
2018-09-03T00:10:09.986Z,98359.63
2018-09-03T00:15:03.288Z,98351.36
2018-09-03T00:19:56.812Z,98349.00
2018-09-03T00:24:49.846Z,98349.41
2018-09-03T00:29:42.987Z,98339.54
2018-09-03T00:34:41.793Z,98333.96
2018-09-03T00:39:40.399Z,98332.02
2018-09-03T00:44:38.898Z,98327.33
2018-09-03T00:49:32.105Z,98323.45
2018-09-03T00:54:25.512Z,98319.73
2018-09-03T00:59:18.958Z,98323.05
2018-09-03T01:04:11.971Z,98317.58
2018-09-03T01:09:07.280Z,98319.75
2018-09-03T01:14:00.372Z,98319.81
2018-09-03T01:18:54.945Z,98313.24
2018-09-03T01:23:47.971Z,98326.09
2018-09-03T01:28:40.970Z,98319.45
2018-09-03T01:33:34.168Z,98327.60
2018-09-03T01:38:27.295Z,98338.75
2018-09-03T01:43:20.272Z,98318.36
2018-09-03T01:48:16.859Z,98322.25
2018-09-03T01:53:10.040Z,98323.48
2018-09-03T01:58:03.167Z,98315.14
2018-09-03T02:02:56.587Z,98309.03
2018-09-03T02:07:49.753Z,98305.28
2018-09-03T02:12:42.885Z,98311.73
2018-09-03T02:17:36.002Z,98308.31
2018-09-03T02:22:29.080Z,98305.58
2018-09-03T02:27:22.238Z,98299.88
2018-09-03T02:32:15.222Z,98293.50
2018-09-03T02:37:08.482Z,98290.29
2018-09-03T02:42:01.619Z,98289.99
2018-09-03T02:46:54.825Z,98297.92
2018-09-03T02:51:47.818Z,98295.96
2018-09-03T02:56:40.905Z,98305.70
2018-09-03T03:01:34.001Z,98299.80
2018-09-03T03:06:27.116Z,98302.23
2018-09-03T03:11:20.202Z,98301.23
2018-09-03T03:16:13.436Z,98302.89
2018-09-03T03:21:06.825Z,98314.27
2018-09-03T03:25:59.965Z,98318.29
2018-09-03T03:30:53.050Z,98317.34
2018-09-03T03:35:46.253Z,98319.09
2018-09-03T03:40:39.562Z,98325.37
2018-09-03T03:45:32.616Z,98337.78
2018-09-03T03:50:25.820Z,98334.63
2018-09-03T03:55:19.019Z,98330.17
2018-09-03T04:00:12.170Z,98339.00
2018-09-03T04:05:05.796Z,98332.17
2018-09-03T04:09:58.840Z,98333.34
2018-09-03T04:14:52.006Z,98325.53
2018-09-03T04:19:49.550Z,98325.73
2018-09-03T04:24:42.817Z,98325.25
2018-09-03T04:29:35.824Z,98319.50
2018-09-03T04:34:28.970Z,98310.08
2018-09-03T04:39:22.191Z,98312.73
2018-09-03T04:44:15.429Z,98304.13
2018-09-03T04:49:08.659Z,98302.75
2018-09-03T04:54:01.932Z,98302.84
2018-09-03T04:58:57.432Z,98293.19
2018-09-03T05:03:54.812Z,98285.33
2018-09-03T05:08:53.685Z,98280.62
2018-09-03T05:13:50.296Z,98284.64
2018-09-03T05:18:47.625Z,98275.47
2018-09-03T05:23:42.335Z,98279.47
2018-09-03T05:28:35.455Z,98275.60
2018-09-03T05:33:29.106Z,98268.74
2018-09-03T05:38:23.855Z,98277.08
2018-09-03T05:43:17.773Z,98280.83
2018-09-03T05:48:15.757Z,98280.14
2018-09-03T05:53:08.955Z,98269.34
2018-09-03T05:58:02.043Z,98267.90
2018-09-03T06:02:55.118Z,98278.03
2018-09-03T06:07:48.530Z,98279.39
2018-09-03T06:12:42.046Z,98271.16
2018-09-03T06:17:36.144Z,98270.14
2018-09-03T06:22:29.466Z,98272.34
2018-09-03T06:27:24.056Z,98268.99
2018-09-03T06:32:18.692Z,98268.89
2018-09-03T06:37:11.739Z,98263.87
2018-09-03T06:42:04.969Z,98263.27
2018-09-03T06:46:58.051Z,98267.38
2018-09-03T06:51:51.618Z,98266.39
2018-09-03T06:56:44.712Z,98273.70
2018-09-03T07:01:38.449Z,98264.98
2018-09-03T07:06:32.775Z,98260.31
2018-09-03T07:11:25.965Z,98250.63
2018-09-03T07:16:19.006Z,98247.59
2018-09-03T07:21:12.917Z,98245.19
2018-09-03T07:26:06.661Z,98239.07
2018-09-03T07:31:01.100Z,98236.27
2018-09-03T07:35:54.115Z,98239.03
2018-09-03T07:40:47.267Z,98245.42
2018-09-03T07:45:40.367Z,98248.11
2018-09-03T07:50:34.467Z,98241.60
2018-09-03T07:55:27.795Z,98228.30
2018-09-03T08:00:20.765Z,98224.87
2018-09-03T08:05:14.116Z,98221.17
2018-09-03T08:10:08.869Z,98217.45
2018-09-03T08:15:02.184Z,98219.73
2018-09-03T08:19:55.395Z,98209.27
2018-09-03T08:24:48.719Z,98212.02
2018-09-03T08:29:43.410Z,98206.09
2018-09-03T08:34:36.515Z,98208.30
2018-09-03T08:39:36.153Z,98202.72
2018-09-03T08:44:29.682Z,98196.55
2018-09-03T08:49:22.739Z,98189.81
2018-09-03T08:54:16.020Z,98187.09
2018-09-03T08:59:09.032Z,98176.85
2018-09-03T09:04:02.193Z,98171.73
2018-09-03T09:08:55.923Z,98166.92
2018-09-03T09:13:49.011Z,98168.00
2018-09-03T09:18:42.520Z,98160.21
2018-09-03T09:23:35.815Z,98164.94
2018-09-03T09:28:31.736Z,98172.00
2018-09-03T09:33:26.860Z,98162.83
2018-09-03T09:38:20.023Z,98161.18
2018-09-03T09:43:13.048Z,98148.33
2018-09-03T09:48:06.203Z,98138.19
2018-09-03T09:52:59.574Z,98138.27
2018-09-03T09:57:52.792Z,98126.03
2018-09-03T10:02:45.941Z,98118.66
2018-09-03T10:07:39.192Z,98113.95
2018-09-03T10:12:32.929Z,98101.31
2018-09-03T10:17:26.228Z,98107.84
2018-09-03T10:22:19.334Z,98103.34
2018-09-03T10:27:13.053Z,98087.87
2018-09-03T10:32:06.506Z,98086.11
2018-09-03T10:36:59.725Z,98082.59
2018-09-03T10:41:52.931Z,98069.58
2018-09-03T10:46:47.446Z,98064.22
2018-09-03T10:51:40.677Z,98066.08
2018-09-03T10:56:33.685Z,98056.06
2018-09-03T11:01:27.349Z,98058.80
2018-09-03T11:06:20.416Z,98056.99
2018-09-03T11:11:13.709Z,98061.45
2018-09-03T11:16:07.052Z,98060.81
2018-09-03T11:21:00.157Z,98043.72
2018-09-03T11:25:54.202Z,98040.30
2018-09-03T11:30:47.582Z,98041.80
2018-09-03T11:35:42.237Z,98021.72
2018-09-03T11:40:35.500Z,98020.37
2018-09-03T11:45:28.785Z,98021.25
2018-09-03T11:50:21.844Z,98014.69
2018-09-03T11:55:15.230Z,98004.47
2018-09-03T12:00:11.806Z,98003.16
2018-09-03T12:05:05.241Z,97986.39
2018-09-03T12:09:58.351Z,97986.00
2018-09-03T12:14:58.323Z,97971.55
2018-09-03T12:19:51.878Z,97973.86
2018-09-03T12:24:44.926Z,97973.61
2018-09-03T12:29:38.101Z,97969.92
2018-09-03T12:34:31.119Z,97964.86
2018-09-03T12:39:24.239Z,97959.48
2018-09-03T12:44:17.491Z,97952.41
2018-09-03T12:49:12.130Z,97959.48
2018-09-03T12:54:05.372Z,97966.37
2018-09-03T12:58:58.484Z,97958.91
2018-09-03T13:03:56.695Z,97955.56
2018-09-03T13:08:49.877Z,97957.87
2018-09-03T13:13:50.666Z,97948.70
2018-09-03T13:18:44.887Z,97953.88
2018-09-03T13:23:38.109Z,97948.67
2018-09-03T13:28:31.325Z,97946.83
2018-09-03T13:33:24.469Z,97936.78
2018-09-03T13:38:17.640Z,97946.04
2018-09-03T13:43:10.840Z,97934.24
2018-09-03T13:48:04.108Z,97933.34
2018-09-03T13:52:57.227Z,97924.81
2018-09-03T13:57:50.432Z,97929.22
2018-09-03T14:02:43.738Z,97922.14
2018-09-03T14:07:36.772Z,97919.77
2018-09-03T14:12:29.990Z,97918.96
2018-09-03T14:17:23.302Z,97905.22
2018-09-03T14:22:16.517Z,97902.61
2018-09-03T14:27:09.880Z,97905.30
2018-09-03T14:32:03.182Z,97906.64
2018-09-03T14:36:56.571Z,97916.84
2018-09-03T14:41:49.906Z,97912.28
2018-09-03T14:46:44.545Z,97904.48
2018-09-03T14:51:37.633Z,97907.98
2018-09-03T14:56:30.843Z,97908.84
2018-09-03T15:01:24.123Z,97923.41
2018-09-03T15:06:17.426Z,97916.58
2018-09-03T15:11:10.692Z,97915.97
2018-09-03T15:16:03.951Z,97927.94
2018-09-03T15:20:57.208Z,97924.88
2018-09-03T15:25:50.386Z,97942.36
2018-09-03T15:30:43.993Z,97946.61
2018-09-03T15:35:37.297Z,97922.33
2018-09-03T15:40:30.611Z,97939.62
2018-09-03T15:45:23.784Z,97955.97
2018-09-03T15:50:17.056Z,97979.20
2018-09-03T15:55:10.447Z,97974.73
2018-09-03T16:00:03.956Z,97971.21
2018-09-03T16:04:57.153Z,97985.59
2018-09-03T16:09:51.288Z,97984.70
2018-09-03T16:14:48.705Z,97987.23
2018-09-03T16:19:43.207Z,97989.34
2018-09-03T16:24:36.997Z,97994.98
2018-09-03T16:29:30.972Z,97990.33
2018-09-03T16:34:24.315Z,97982.78
2018-09-03T16:39:19.252Z,97990.42
2018-09-03T16:44:12.740Z,98002.34
2018-09-03T16:49:06.372Z,98011.44
2018-09-03T16:54:02.405Z,98006.74
2018-09-03T16:58:55.842Z,97999.91
2018-09-03T17:03:49.319Z,97998.95
2018-09-03T17:08:46.091Z,98002.97
2018-09-03T17:13:42.049Z,98004.65
2018-09-03T17:18:36.590Z,98017.49
2018-09-03T17:23:31.241Z,98026.34
2018-09-03T17:28:25.296Z,98028.31
2018-09-03T17:33:21.527Z,98040.12
2018-09-03T17:38:16.329Z,98046.97
2018-09-03T17:43:11.403Z,98056.81
2018-09-03T17:48:07.790Z,98063.30
2018-09-03T17:53:08.965Z,98062.59
2018-09-03T17:58:03.114Z,98061.09
2018-09-03T18:03:01.259Z,98065.58
2018-09-03T18:07:57.408Z,98052.44
2018-09-03T18:12:52.869Z,98062.98
2018-09-03T18:17:52.577Z,98069.44
2018-09-03T18:22:45.600Z,98072.77
2018-09-03T18:27:43.632Z,98066.98
2018-09-03T18:32:38.620Z,98075.79
2018-09-03T18:37:37.454Z,98077.77
2018-09-03T18:42:31.245Z,98073.91
2018-09-03T18:47:26.516Z,98058.32
2018-09-03T18:52:21.414Z,98054.20
2018-09-03T18:57:15.660Z,98049.93
2018-09-03T19:02:09.682Z,98053.59
2018-09-03T19:07:04.727Z,98056.45
2018-09-03T19:11:59.422Z,98054.22
2018-09-03T19:16:58.322Z,98051.33
2018-09-03T19:21:53.307Z,98052.22
2018-09-03T19:26:48.167Z,98052.16
2018-09-03T19:31:48.407Z,98052.82
2018-09-03T19:36:44.247Z,98068.55
2018-09-03T19:41:38.232Z,98068.47
2018-09-03T19:46:36.113Z,98063.85
2018-09-03T19:51:31.304Z,98060.39
2018-09-03T19:56:29.436Z,98048.91
2018-09-03T20:01:23.918Z,98047.48
2018-09-03T20:06:24.845Z,98049.22
2018-09-03T20:11:20.244Z,98052.19
2018-09-03T20:16:14.707Z,98048.11
2018-09-03T20:21:12.610Z,98035.44
2018-09-03T20:26:09.156Z,98044.75
2018-09-03T20:31:07.629Z,98034.52
2018-09-03T20:36:05.947Z,98028.84
2018-09-03T20:41:00.623Z,98026.56
2018-09-03T20:45:56.906Z,98022.56
2018-09-03T20:50:51.063Z,98017.53
2018-09-03T20:55:49.953Z,98007.16
2018-09-03T21:00:51.433Z,97995.67
2018-09-03T21:05:46.048Z,97984.49
2018-09-03T21:10:40.367Z,97974.33
2018-09-03T21:15:36.479Z,97968.06
2018-09-03T21:20:31.680Z,97968.64
2018-09-03T21:25:30.132Z,97966.65
2018-09-03T21:30:24.149Z,97977.41
2018-09-03T21:35:19.894Z,97978.70
2018-09-03T21:40:14.677Z,97980.42
2018-09-03T21:45:09.323Z,97972.45
2018-09-03T21:50:04.479Z,97975.95
2018-09-03T21:55:02.697Z,97969.16
2018-09-03T21:59:56.775Z,97960.55
2018-09-03T22:04:54.812Z,97956.20
2018-09-03T22:09:48.688Z,97963.30
2018-09-03T22:14:41.934Z,97959.66
2018-09-03T22:19:36.860Z,97967.80
2018-09-03T22:24:32.847Z,97960.48
2018-09-03T22:29:27.770Z,97955.25
2018-09-03T22:34:26.363Z,97962.98
2018-09-03T22:39:23.588Z,97959.96
2018-09-03T22:44:19.933Z,97966.28
2018-09-03T22:49:16.606Z,97970.11
2018-09-03T22:54:11.493Z,97958.67
2018-09-03T22:59:06.153Z,97952.55
2018-09-03T23:04:08.276Z,97945.05
2018-09-03T23:09:04.642Z,97926.08
2018-09-03T23:13:59.904Z,97932.59
2018-09-03T23:18:57.260Z,97919.02
2018-09-03T23:23:56.090Z,97905.66
2018-09-03T23:28:52.390Z,97915.52
2018-09-03T23:33:46.195Z,97908.91
2018-09-03T23:38:40.279Z,97911.15
2018-09-03T23:43:35.634Z,97912.52
2018-09-03T23:48:29.510Z,97914.62
2018-09-03T23:53:23.079Z,97911.69
2018-09-03T23:58:16.241Z,97905.45
